createdAt,value
2019-05-10T00:00:16.531Z,9.93
2019-05-10T00:03:04.294Z,10.53
2019-05-10T00:05:52.121Z,10.93
2019-05-10T00:08:39.904Z,10.67
2019-05-10T00:11:25.409Z,10.83
2019-05-10T00:14:17.291Z,10.97
2019-05-10T00:16:48.600Z,11.47
2019-05-10T00:19:18.819Z,11.23
2019-05-10T00:21:49.066Z,11.83
2019-05-10T00:24:19.281Z,11.47
2019-05-10T00:26:49.457Z,12.30
2019-05-10T00:29:20.876Z,12.20
2019-05-10T00:31:51.045Z,12.53
2019-05-10T00:34:21.238Z,11.57
2019-05-10T00:36:51.447Z,14.27
2019-05-10T00:39:21.652Z,13.33
2019-05-10T00:41:51.867Z,13.33
2019-05-10T00:44:22.023Z,13.47
2019-05-10T00:46:52.255Z,14.20
2019-05-10T00:49:22.394Z,14.57
2019-05-10T00:51:52.538Z,14.70
2019-05-10T00:54:22.744Z,14.50
2019-05-10T00:56:52.946Z,14.63
2019-05-10T00:59:23.236Z,15.43
2019-05-10T01:01:53.398Z,14.50
2019-05-10T01:04:23.571Z,16.37
2019-05-10T01:06:56.420Z,16.40
2019-05-10T01:09:25.533Z,15.57
2019-05-10T01:11:55.800Z,15.93
2019-05-10T01:14:26.067Z,16.83
2019-05-10T01:16:56.142Z,16.47
2019-05-10T01:19:26.372Z,18.03
2019-05-10T01:21:56.661Z,16.53
2019-05-10T01:24:26.856Z,16.63
2019-05-10T01:26:57.050Z,17.33
2019-05-10T01:29:27.352Z,17.50
2019-05-10T01:31:57.795Z,17.20
2019-05-10T01:34:27.945Z,17.50
2019-05-10T01:36:58.102Z,17.20
2019-05-10T01:39:28.926Z,17.40
2019-05-10T01:41:59.091Z,16.43
2019-05-10T01:44:29.179Z,19.00
2019-05-10T01:46:59.297Z,19.00
2019-05-10T01:49:29.363Z,19.40
2019-05-10T01:51:59.563Z,19.10
2019-05-10T01:54:29.895Z,18.57
2019-05-10T01:57:00.226Z,18.00
2019-05-10T01:59:30.489Z,19.57
2019-05-10T02:02:00.764Z,19.13
2019-05-10T02:04:31.879Z,19.27
2019-05-10T02:07:02.010Z,19.37
2019-05-10T02:09:33.329Z,19.37
2019-05-10T02:12:03.727Z,20.10
2019-05-10T02:14:33.867Z,20.17
2019-05-10T02:17:04.094Z,19.30
2019-05-10T02:19:34.289Z,19.87
2019-05-10T02:22:04.481Z,19.43
2019-05-10T02:24:34.721Z,19.73
2019-05-10T02:27:04.856Z,20.00
2019-05-10T02:29:35.011Z,21.23
2019-05-10T02:32:05.190Z,21.17
2019-05-10T02:34:35.428Z,22.00
2019-05-10T02:37:05.635Z,21.83
2019-05-10T02:39:35.871Z,22.20
2019-05-10T02:42:06.111Z,21.73
2019-05-10T02:44:36.270Z,22.20
2019-05-10T02:47:06.486Z,22.07
2019-05-10T02:49:36.711Z,21.40
2019-05-10T02:52:07.873Z,22.33
2019-05-10T02:54:38.280Z,21.70
2019-05-10T02:57:08.810Z,22.57
2019-05-10T02:59:40.175Z,22.50
2019-05-10T03:02:10.313Z,23.17
2019-05-10T03:04:40.520Z,23.20
2019-05-10T03:07:10.747Z,22.83
2019-05-10T03:09:40.942Z,24.40
2019-05-10T03:12:25.333Z,23.57
2019-05-10T03:14:57.282Z,23.60
2019-05-10T03:17:28.601Z,24.90
2019-05-10T03:20:00.725Z,22.93
2019-05-10T03:22:33.987Z,22.97
2019-05-10T03:25:04.351Z,23.57
2019-05-10T03:27:34.771Z,23.90
2019-05-10T03:30:05.443Z,22.97
2019-05-10T03:32:35.695Z,23.10
2019-05-10T03:35:07.059Z,23.60
2019-05-10T03:37:37.361Z,24.97
2019-05-10T03:40:08.566Z,23.53
2019-05-10T03:42:38.863Z,24.73
2019-05-10T03:45:09.380Z,24.03
2019-05-10T03:47:39.559Z,24.53
2019-05-10T03:50:11.187Z,25.03
2019-05-10T03:52:41.306Z,25.80
2019-05-10T03:55:11.494Z,25.30
2019-05-10T03:57:42.680Z,25.40
2019-05-10T04:00:13.205Z,27.10
2019-05-10T04:02:43.342Z,24.57
2019-05-10T04:05:13.466Z,25.07
2019-05-10T04:07:43.676Z,24.90
2019-05-10T04:10:14.160Z,24.83
2019-05-10T04:12:44.284Z,24.23
2019-05-10T04:15:14.493Z,25.63
2019-05-10T04:17:49.394Z,25.33
2019-05-10T04:20:16.610Z,24.73
2019-05-10T04:22:46.823Z,24.40
2019-05-10T04:25:18.926Z,25.90
2019-05-10T04:27:49.085Z,25.80
2019-05-10T04:30:20.781Z,25.10
2019-05-10T04:32:50.988Z,26.83
2019-05-10T04:35:21.098Z,26.90
2019-05-10T04:37:51.333Z,27.67
2019-05-10T04:40:21.571Z,27.97
2019-05-10T04:42:51.770Z,28.80
2019-05-10T04:45:21.979Z,30.30
2019-05-10T04:47:52.205Z,31.23
2019-05-10T04:50:22.424Z,28.47
2019-05-10T04:52:52.615Z,29.77
2019-05-10T04:55:22.846Z,28.50
2019-05-10T04:57:53.001Z,29.10
2019-05-10T05:00:23.194Z,29.87
2019-05-10T05:02:53.348Z,29.90
2019-05-10T05:05:23.631Z,29.27
2019-05-10T05:07:53.834Z,30.30
2019-05-10T05:10:23.897Z,29.30
2019-05-10T05:12:53.965Z,30.37
2019-05-10T05:15:24.164Z,30.57
2019-05-10T05:17:54.398Z,30.70
2019-05-10T05:20:24.550Z,33.33
2019-05-10T05:22:54.738Z,32.40
2019-05-10T05:25:24.898Z,32.20
2019-05-10T05:28:07.450Z,32.83
2019-05-10T05:30:27.026Z,32.50
2019-05-10T05:32:57.175Z,32.73
2019-05-10T05:35:27.474Z,33.33
2019-05-10T05:37:57.776Z,32.00
2019-05-10T05:40:27.986Z,35.23
2019-05-10T05:43:02.674Z,34.87
2019-05-10T05:45:33.958Z,33.63
2019-05-10T05:48:01.942Z,33.80
2019-05-10T05:50:32.216Z,36.07
2019-05-10T05:53:02.439Z,37.13
2019-05-10T05:55:32.519Z,33.93
2019-05-10T05:58:04.609Z,34.10
2019-05-10T06:00:38.018Z,36.63
2019-05-10T06:03:06.565Z,37.27
2019-05-10T06:05:37.426Z,37.40
2019-05-10T06:08:21.884Z,36.40
2019-05-10T06:10:41.975Z,38.90
2019-05-10T06:13:11.755Z,35.37
2019-05-10T06:15:42.042Z,35.67
2019-05-10T06:18:12.336Z,37.40
2019-05-10T06:20:44.506Z,39.67
2019-05-10T06:23:14.558Z,38.03
2019-05-10T06:25:44.709Z,38.67
2019-05-10T06:28:26.597Z,37.97
2019-05-10T06:30:46.957Z,35.47
2019-05-10T06:33:17.158Z,36.10
2019-05-10T06:35:47.378Z,35.33
2019-05-10T06:38:17.582Z,37.00
2019-05-10T06:40:48.215Z,36.73
2019-05-10T06:43:18.717Z,38.10
2019-05-10T06:45:52.403Z,38.73
2019-05-10T06:48:27.601Z,35.60
2019-05-10T06:50:52.689Z,38.40
2019-05-10T06:53:23.529Z,37.53
2019-05-10T06:55:53.918Z,35.60
2019-05-10T06:58:24.118Z,34.47
2019-05-10T07:00:54.340Z,37.33
2019-05-10T07:03:24.734Z,36.40
2019-05-10T07:05:54.865Z,36.20
2019-05-10T07:08:25.139Z,33.33
2019-05-10T07:10:55.269Z,33.90
2019-05-10T07:13:25.438Z,29.00
2019-05-10T07:15:55.653Z,29.40
2019-05-10T07:18:25.781Z,31.17
2019-05-10T07:21:00.931Z,27.37
2019-05-10T07:23:30.062Z,32.87
2019-05-10T07:26:00.833Z,30.23
2019-05-10T07:28:30.997Z,31.20
2019-05-10T07:31:01.190Z,28.43
2019-05-10T07:33:37.216Z,26.57
2019-05-10T07:36:04.294Z,26.20
2019-05-10T07:38:34.585Z,25.47
2019-05-10T07:41:04.795Z,25.20
2019-05-10T07:43:34.942Z,25.13
2019-05-10T07:46:06.873Z,22.93
2019-05-10T07:48:41.149Z,27.23
2019-05-10T07:51:08.918Z,26.73
2019-05-10T07:53:39.060Z,26.80
2019-05-10T07:56:09.302Z,29.00
2019-05-10T07:58:43.439Z,30.43
2019-05-10T08:01:12.324Z,28.53
2019-05-10T08:03:48.068Z,23.30
2019-05-10T08:06:15.456Z,22.97
2019-05-10T08:08:45.786Z,24.03
2019-05-10T08:11:16.098Z,24.33
2019-05-10T08:13:48.464Z,21.17
2019-05-10T08:16:22.741Z,22.47
2019-05-10T08:18:49.981Z,20.83
2019-05-10T08:21:23.927Z,21.03
2019-05-10T08:23:54.006Z,21.53
2019-05-10T08:26:24.783Z,19.67
2019-05-10T08:28:55.231Z,18.50
2019-05-10T08:31:26.385Z,16.57
2019-05-10T08:33:59.039Z,17.97
2019-05-10T08:36:29.200Z,18.23
2019-05-10T08:39:09.408Z,18.27
2019-05-10T08:41:32.897Z,18.43
2019-05-10T08:44:04.946Z,18.43
2019-05-10T08:46:41.288Z,19.73
2019-05-10T08:49:06.996Z,18.23
2019-05-10T08:51:44.161Z,16.30
2019-05-10T08:54:09.406Z,16.33
2019-05-10T08:56:46.419Z,16.33
2019-05-10T08:59:16.315Z,14.60
2019-05-10T09:01:46.946Z,12.17
2019-05-10T09:04:15.300Z,14.10
2019-05-10T09:06:47.612Z,13.57
2019-05-10T09:09:17.526Z,13.13
2019-05-10T09:11:48.182Z,16.13
2019-05-10T09:14:20.198Z,16.43
2019-05-10T09:16:59.794Z,16.77
2019-05-10T09:19:27.647Z,16.93
2019-05-10T09:21:55.072Z,16.83
2019-05-10T09:24:25.381Z,17.50
2019-05-10T09:26:56.993Z,16.30
2019-05-10T09:29:32.169Z,18.17
2019-05-10T09:32:01.123Z,19.23
2019-05-10T09:34:32.496Z,18.67
2019-05-10T09:37:03.046Z,20.70
2019-05-10T09:39:33.402Z,19.40
2019-05-10T09:42:07.874Z,20.83
2019-05-10T09:44:35.590Z,21.57
2019-05-10T09:47:05.903Z,23.63
2019-05-10T09:49:36.049Z,23.83
2019-05-10T09:52:12.677Z,25.80
2019-05-10T09:54:38.193Z,26.43
2019-05-10T09:57:08.442Z,26.30
2019-05-10T09:59:38.746Z,25.00
2019-05-10T10:02:14.649Z,23.20
2019-05-10T10:04:40.871Z,21.73
2019-05-10T10:07:11.065Z,21.80
2019-05-10T10:09:45.099Z,20.87
2019-05-10T10:12:14.553Z,21.27
2019-05-10T10:14:47.094Z,16.93
2019-05-10T10:17:20.518Z,16.77
2019-05-10T10:19:50.697Z,16.17
2019-05-10T10:22:20.921Z,16.50
2019-05-10T10:24:54.678Z,17.27
2019-05-10T10:27:28.022Z,17.53
2019-05-10T10:29:57.202Z,19.10
2019-05-10T10:32:31.587Z,20.13
2019-05-10T10:34:58.706Z,19.83
2019-05-10T10:37:31.333Z,22.93
2019-05-10T10:40:05.363Z,18.73
2019-05-10T10:42:32.939Z,19.80
2019-05-10T10:45:07.482Z,20.70
2019-05-10T10:47:38.233Z,20.33
2019-05-10T10:50:13.377Z,19.60
2019-05-10T10:52:42.737Z,20.13
2019-05-10T10:55:15.465Z,19.13
2019-05-10T10:57:48.121Z,20.03
2019-05-10T11:00:23.642Z,21.03
2019-05-10T11:02:54.678Z,21.37
2019-05-10T11:05:28.763Z,19.43
2019-05-10T11:08:02.287Z,19.00
2019-05-10T11:10:33.798Z,19.53
2019-05-10T11:13:16.090Z,20.27
2019-05-10T11:15:41.989Z,20.83
2019-05-10T11:18:17.542Z,21.47
2019-05-10T11:20:49.339Z,22.23
2019-05-10T11:23:24.477Z,23.80
2019-05-10T11:25:56.479Z,23.77
2019-05-10T11:28:32.480Z,25.37
2019-05-10T11:30:57.700Z,24.80
2019-05-10T11:33:32.875Z,24.67
2019-05-10T11:36:04.137Z,23.90
2019-05-10T11:38:34.431Z,25.37
2019-05-10T11:41:07.127Z,26.50
2019-05-10T11:43:37.394Z,28.60
2019-05-10T11:46:07.908Z,29.13
2019-05-10T11:48:42.402Z,30.00
2019-05-10T11:51:17.344Z,29.30
2019-05-10T11:53:55.488Z,29.53
2019-05-10T11:56:27.370Z,29.13
2019-05-10T11:58:56.043Z,31.63
2019-05-10T12:01:26.835Z,30.83
2019-05-10T12:03:57.561Z,32.60
2019-05-10T12:06:31.758Z,30.70
2019-05-10T12:09:04.512Z,30.67
2019-05-10T12:11:34.256Z,30.47
2019-05-10T12:14:06.372Z,29.33
2019-05-10T12:16:42.179Z,30.30
2019-05-10T12:21:44.879Z,30.83
2019-05-10T12:24:32.444Z,29.60
2019-05-10T12:26:31.415Z,28.90
2019-05-10T12:27:12.617Z,28.93
2019-05-10T12:29:21.272Z,28.47
2019-05-10T12:31:55.173Z,29.57
2019-05-10T12:34:24.103Z,28.90
2019-05-10T12:36:57.609Z,29.40
2019-05-10T12:39:27.021Z,28.17
2019-05-10T12:41:57.309Z,27.03
2019-05-10T12:44:27.611Z,27.70
2019-05-10T12:47:01.144Z,27.13
2019-05-10T12:49:32.310Z,26.70
2019-05-10T12:52:03.350Z,26.77
2019-05-10T12:54:33.706Z,28.20
2019-05-10T12:57:06.092Z,28.13
2019-05-10T12:59:37.037Z,28.07
2019-05-10T13:02:10.769Z,26.73
2019-05-10T13:04:41.170Z,29.43
2019-05-10T13:07:11.663Z,30.30
2019-05-10T13:09:41.946Z,28.03
2019-05-10T13:12:12.167Z,28.50
2019-05-10T13:14:46.659Z,28.13
2019-05-10T13:17:16.869Z,28.80
2019-05-10T13:19:46.206Z,28.00
2019-05-10T13:22:16.419Z,28.87
2019-05-10T13:24:46.578Z,29.40
2019-05-10T13:27:16.715Z,29.03
2019-05-10T13:29:52.781Z,29.27
2019-05-10T13:32:20.626Z,26.93
2019-05-10T13:34:50.720Z,26.40
2019-05-10T13:37:24.740Z,27.13
2019-05-10T13:39:58.463Z,26.93
2019-05-10T13:42:24.914Z,27.07
2019-05-10T13:44:55.061Z,26.63
2019-05-10T13:47:25.288Z,27.97
2019-05-10T13:49:55.491Z,25.80
2019-05-10T13:52:30.010Z,25.87
2019-05-10T13:54:58.232Z,25.60
2019-05-10T13:57:29.538Z,27.20
2019-05-10T14:00:02.297Z,27.57
2019-05-10T14:02:34.247Z,28.20
2019-05-10T14:05:03.778Z,25.27
2019-05-10T14:07:35.624Z,26.20
2019-05-10T14:10:06.190Z,25.10
2019-05-10T14:12:37.733Z,26.97
2019-05-10T14:15:12.966Z,25.57
2019-05-10T14:17:40.172Z,24.50
2019-05-10T14:20:19.657Z,24.00
2019-05-10T14:22:48.415Z,22.40
2019-05-10T14:25:16.508Z,23.87
2019-05-10T14:27:46.775Z,22.77
2019-05-10T14:30:17.064Z,23.93
2019-05-10T14:32:49.676Z,22.00
2019-05-10T14:35:22.442Z,23.43
2019-05-10T14:37:51.775Z,22.33
2019-05-10T14:40:27.829Z,22.90
2019-05-10T14:42:53.957Z,25.10
2019-05-10T14:45:24.187Z,25.43
2019-05-10T14:47:54.322Z,26.83
2019-05-10T14:50:28.521Z,26.17
2019-05-10T14:52:57.221Z,26.37
2019-05-10T14:55:34.415Z,25.63
2019-05-10T14:57:59.395Z,25.50
2019-05-10T15:00:29.638Z,24.57
2019-05-10T15:03:02.145Z,24.13
2019-05-10T15:05:31.602Z,22.67
2019-05-10T15:08:01.974Z,23.10
2019-05-10T15:10:33.172Z,21.77
2019-05-10T15:13:04.157Z,21.27
2019-05-10T15:15:37.100Z,20.73
2019-05-10T15:18:06.436Z,21.80
2019-05-10T15:20:36.741Z,21.70
2019-05-10T15:23:06.909Z,21.40
2019-05-10T15:25:37.267Z,20.43
2019-05-10T15:28:07.470Z,21.37
2019-05-10T15:30:39.224Z,22.03
2019-05-10T15:33:09.503Z,22.97
2019-05-10T15:35:39.786Z,21.93
2019-05-10T15:38:10.000Z,21.70
2019-05-10T15:40:44.525Z,20.60
2019-05-10T15:43:17.348Z,21.17
2019-05-10T15:45:46.049Z,21.70
2019-05-10T15:48:15.885Z,20.87
2019-05-10T15:50:46.033Z,20.23
2019-05-10T15:53:19.421Z,20.93
2019-05-10T15:55:48.242Z,21.07
2019-05-10T15:58:19.560Z,20.80
2019-05-10T16:00:49.856Z,20.90
2019-05-10T16:03:20.065Z,20.50
2019-05-10T16:06:00.501Z,22.53
2019-05-10T16:08:23.936Z,22.60
2019-05-10T16:10:54.086Z,21.10
2019-05-10T16:13:25.188Z,20.73
2019-05-10T16:15:57.556Z,21.53
2019-05-10T16:18:27.612Z,21.67
2019-05-10T16:20:57.942Z,21.07
2019-05-10T16:23:28.545Z,20.23
2019-05-10T16:25:58.737Z,20.57
2019-05-10T16:28:29.225Z,21.67
2019-05-10T16:30:59.434Z,21.50
2019-05-10T16:33:29.710Z,20.33
2019-05-10T16:35:59.864Z,20.53
2019-05-10T16:38:30.054Z,20.40
2019-05-10T16:41:00.733Z,21.60
2019-05-10T16:43:31.167Z,21.07
2019-05-10T16:46:02.319Z,23.27
2019-05-10T16:48:32.531Z,23.13
2019-05-10T16:51:03.782Z,24.03
2019-05-10T16:53:37.690Z,22.93
2019-05-10T16:56:06.716Z,22.57
2019-05-10T16:58:36.980Z,23.93
2019-05-10T17:01:07.225Z,22.90
2019-05-10T17:03:37.400Z,24.27
2019-05-10T17:06:07.742Z,22.50
2019-05-10T17:08:38.821Z,23.13
2019-05-10T17:11:10.178Z,22.27
2019-05-10T17:13:41.594Z,23.50
2019-05-10T17:16:17.060Z,23.83
2019-05-10T17:18:49.843Z,23.57
2019-05-10T17:21:16.630Z,23.60
2019-05-10T17:23:48.501Z,22.40
2019-05-10T17:26:18.696Z,23.57
2019-05-10T17:28:49.999Z,22.93
2019-05-10T17:31:21.307Z,22.90
2019-05-10T17:33:51.477Z,22.20
2019-05-10T17:36:21.680Z,22.00
2019-05-10T17:38:55.520Z,21.20
2019-05-10T17:41:27.091Z,25.77
2019-05-10T17:44:00.454Z,24.27
2019-05-10T17:46:32.206Z,22.40
2019-05-10T17:49:02.925Z,23.20
2019-05-10T17:51:33.138Z,23.10
2019-05-10T17:54:03.786Z,21.07
2019-05-10T17:56:38.904Z,22.27
2019-05-10T17:59:11.872Z,22.30
2019-05-10T18:01:39.072Z,21.17
2019-05-10T18:04:10.985Z,20.77
2019-05-10T18:06:41.136Z,22.17
2019-05-10T18:09:11.324Z,19.30
2019-05-10T18:11:43.113Z,18.97
2019-05-10T18:14:17.853Z,17.87
2019-05-10T18:16:47.896Z,17.43
2019-05-10T18:19:19.266Z,19.20
2019-05-10T18:21:48.990Z,17.63
2019-05-10T18:24:19.208Z,18.90
2019-05-10T18:26:49.451Z,18.90
2019-05-10T18:29:19.646Z,19.33
2019-05-10T18:31:55.771Z,19.90
2019-05-10T18:34:26.296Z,36.37
2019-05-10T18:36:53.738Z,33.83
2019-05-10T18:39:23.860Z,54.77
2019-05-10T18:41:54.051Z,30.53
2019-05-10T18:44:24.250Z,21.73
2019-05-10T18:46:54.518Z,22.60
2019-05-10T18:49:24.702Z,26.13
2019-05-10T18:52:04.902Z,21.50
2019-05-10T18:54:30.901Z,20.20
2019-05-10T18:57:04.467Z,23.23
2019-05-10T18:59:33.323Z,23.33
2019-05-10T19:02:03.600Z,25.53
2019-05-10T19:04:33.771Z,31.67
2019-05-10T19:07:09.609Z,32.50
2019-05-10T19:09:35.956Z,37.93
2019-05-10T19:12:07.025Z,37.43
2019-05-10T19:14:38.146Z,42.90
2019-05-10T19:17:09.344Z,78.67
2019-05-10T19:19:42.109Z,111.60
2019-05-10T19:22:11.739Z,93.03
2019-05-10T19:24:42.056Z,103.90
2019-05-10T19:27:12.354Z,87.50
2019-05-10T19:29:45.779Z,85.40
2019-05-10T19:32:18.320Z,90.13
2019-05-10T19:34:56.743Z,102.70
2019-05-10T19:37:38.925Z,86.43
2019-05-10T19:40:09.433Z,80.13
2019-05-10T19:42:42.913Z,108.10
2019-05-10T19:45:12.918Z,92.13
2019-05-10T19:47:43.787Z,55.63
2019-05-10T19:50:14.454Z,49.93
2019-05-10T19:52:44.728Z,45.60
2019-05-10T19:55:19.595Z,43.33
2019-05-10T19:57:49.469Z,52.43
2019-05-10T20:00:20.288Z,67.57
2019-05-10T20:02:50.522Z,69.93
2019-05-10T20:05:20.792Z,56.53
2019-05-10T20:07:52.208Z,52.63
2019-05-10T20:10:23.470Z,41.27
2019-05-10T20:12:53.787Z,51.20
2019-05-10T20:15:23.984Z,43.77
2019-05-10T20:17:54.264Z,34.00
2019-05-10T20:20:24.523Z,33.77
2019-05-10T20:22:54.813Z,33.43
2019-05-10T20:25:24.956Z,33.87
2019-05-10T20:27:55.171Z,33.73
2019-05-10T20:30:25.381Z,52.67
2019-05-10T20:32:55.645Z,58.93
2019-05-10T20:35:26.083Z,58.43
2019-05-10T20:38:02.195Z,49.53
2019-05-10T20:40:28.452Z,46.37
2019-05-10T20:42:58.912Z,47.20
2019-05-10T20:45:29.087Z,43.73
2019-05-10T20:47:59.407Z,39.23
2019-05-10T20:50:29.746Z,44.93
2019-05-10T20:52:59.947Z,42.50
2019-05-10T20:55:30.301Z,42.67
2019-05-10T20:58:00.627Z,87.67
2019-05-10T21:00:31.094Z,90.80
2019-05-10T21:03:01.443Z,64.50
2019-05-10T21:05:32.875Z,61.77
2019-05-10T21:08:16.046Z,58.27
2019-05-10T21:10:35.138Z,55.07
2019-05-10T21:13:05.377Z,49.17
2019-05-10T21:15:35.616Z,44.33
2019-05-10T21:18:05.745Z,41.80
2019-05-10T21:20:36.003Z,39.30
2019-05-10T21:23:06.227Z,36.53
2019-05-10T21:25:36.458Z,34.43
2019-05-10T21:28:06.771Z,33.50
2019-05-10T21:30:37.098Z,32.37
2019-05-10T21:33:07.339Z,33.80
2019-05-10T21:35:37.598Z,31.47
2019-05-10T21:38:07.727Z,30.30
2019-05-10T21:40:37.882Z,31.10
2019-05-10T21:43:08.146Z,29.77
2019-05-10T21:45:38.287Z,28.80
2019-05-10T21:48:08.461Z,27.63
2019-05-10T21:50:38.602Z,28.27
2019-05-10T21:53:10.027Z,28.23
2019-05-10T21:55:40.223Z,30.73
2019-05-10T21:58:10.400Z,32.07
2019-05-10T22:00:45.274Z,29.97
2019-05-10T22:03:15.559Z,29.13
2019-05-10T22:05:45.871Z,30.13
2019-05-10T22:08:16.254Z,31.30
2019-05-10T22:10:46.424Z,30.47
2019-05-10T22:13:16.591Z,32.40
2019-05-10T22:15:46.808Z,31.93
2019-05-10T22:18:17.005Z,31.97
2019-05-10T22:20:47.158Z,32.70
2019-05-10T22:23:17.438Z,33.50
2019-05-10T22:25:47.517Z,32.60
2019-05-10T22:28:17.754Z,33.00
2019-05-10T22:30:48.046Z,31.40
2019-05-10T22:33:18.319Z,31.77
2019-05-10T22:35:48.590Z,32.13
2019-05-10T22:38:18.807Z,33.40
2019-05-10T22:40:48.866Z,32.40
2019-05-10T22:43:19.047Z,36.03
2019-05-10T22:45:49.390Z,35.63
2019-05-10T22:48:19.621Z,35.53
2019-05-10T22:50:49.762Z,36.53
2019-05-10T22:53:19.926Z,36.23
2019-05-10T22:55:50.107Z,34.70
2019-05-10T22:58:20.274Z,37.53
2019-05-10T23:00:50.626Z,37.13
2019-05-10T23:03:24.629Z,39.50
2019-05-10T23:05:53.731Z,38.43
2019-05-10T23:08:23.959Z,41.33
2019-05-10T23:10:54.221Z,39.30
2019-05-10T23:13:24.429Z,40.20
2019-05-10T23:15:54.688Z,40.87
2019-05-10T23:18:24.875Z,38.93
2019-05-10T23:20:55.070Z,40.57
2019-05-10T23:23:26.382Z,40.77
2019-05-10T23:25:56.661Z,42.07
2019-05-10T23:28:26.797Z,41.93
2019-05-10T23:30:56.992Z,43.30
2019-05-10T23:33:27.158Z,44.63
2019-05-10T23:35:57.358Z,43.70
2019-05-10T23:38:27.674Z,44.90
2019-05-10T23:40:57.851Z,44.20
2019-05-10T23:43:28.035Z,43.17
2019-05-10T23:45:58.112Z,46.00
2019-05-10T23:48:28.276Z,45.00
2019-05-10T23:50:58.409Z,46.70
2019-05-10T23:53:28.546Z,47.23
2019-05-10T23:55:58.735Z,47.53
2019-05-10T23:58:28.879Z,44.63
